sensor_id;sensor_type;location;lat;lon;timestamp;P1;durP1;ratioP1;P2;durP2;ratioP2
34737;SDS011;39910;47.154;27.614;2023-02-01T00:02:23;8.68;;;8.27;;
34737;SDS011;39910;47.154;27.614;2023-02-01T00:04:49;8.23;;;7.82;;
34737;SDS011;39910;47.154;27.614;2023-02-01T00:07:14;8.40;;;8.00;;
34737;SDS011;39910;47.154;27.614;2023-02-01T00:09:39;8.73;;;8.32;;
34737;SDS011;39910;47.154;27.614;2023-02-01T00:12:04;8.60;;;8.20;;
34737;SDS011;39910;47.154;27.614;2023-02-01T00:14:30;8.45;;;8.05;;
34737;SDS011;39910;47.154;27.614;2023-02-01T00:16:57;8.40;;;8.00;;
34737;SDS011;39910;47.154;27.614;2023-02-01T00:19:22;8.57;;;8.18;;
34737;SDS011;39910;47.154;27.614;2023-02-01T00:21:47;8.85;;;8.43;;
34737;SDS011;39910;47.154;27.614;2023-02-01T00:24:13;8.43;;;8.02;;
34737;SDS011;39910;47.154;27.614;2023-02-01T00:26:39;8.65;;;8.25;;
34737;SDS011;39910;47.154;27.614;2023-02-01T00:29:06;8.50;;;8.10;;
34737;SDS011;39910;47.154;27.614;2023-02-01T00:31:32;8.75;;;8.35;;
34737;SDS011;39910;47.154;27.614;2023-02-01T00:33:57;8.00;;;7.70;;
34737;SDS011;39910;47.154;27.614;2023-02-01T00:36:22;8.30;;;7.90;;
34737;SDS011;39910;47.154;27.614;2023-02-01T00:38:48;8.63;;;8.23;;
34737;SDS011;39910;47.154;27.614;2023-02-01T00:41:14;9.02;;;8.55;;
34737;SDS011;39910;47.154;27.614;2023-02-01T00:43:40;8.55;;;8.15;;
34737;SDS011;39910;47.154;27.614;2023-02-01T00:46:05;8.93;;;8.45;;
34737;SDS011;39910;47.154;27.614;2023-02-01T00:48:31;8.32;;;7.93;;
34737;SDS011;39910;47.154;27.614;2023-02-01T00:50:59;8.60;;;8.20;;
34737;SDS011;39910;47.154;27.614;2023-02-01T00:53:26;8.00;;;7.70;;
34737;SDS011;39910;47.154;27.614;2023-02-01T00:55:51;8.43;;;8.02;;
34737;SDS011;39910;47.154;27.614;2023-02-01T00:58:16;8.55;;;8.15;;
34737;SDS011;39910;47.154;27.614;2023-02-01T01:00:42;8.32;;;7.93;;
34737;SDS011;39910;47.154;27.614;2023-02-01T01:03:07;8.60;;;8.20;;
34737;SDS011;39910;47.154;27.614;2023-02-01T01:05:48;8.52;;;8.13;;
34737;SDS011;39910;47.154;27.614;2023-02-01T01:08:14;8.38;;;7.97;;
34737;SDS011;39910;47.154;27.614;2023-02-01T01:10:40;8.40;;;8.00;;
34737;SDS011;39910;47.154;27.614;2023-02-01T01:13:05;8.50;;;8.10;;
34737;SDS011;39910;47.154;27.614;2023-02-01T01:15:30;8.32;;;7.93;;
34737;SDS011;39910;47.154;27.614;2023-02-01T01:17:56;9.68;;;9.18;;
34737;SDS011;39910;47.154;27.614;2023-02-01T01:20:21;8.50;;;8.10;;
34737;SDS011;39910;47.154;27.614;2023-02-01T01:22:47;8.60;;;8.20;;
34737;SDS011;39910;47.154;27.614;2023-02-01T01:25:12;8.50;;;8.10;;
34737;SDS011;39910;47.154;27.614;2023-02-01T01:27:37;8.77;;;8.38;;
34737;SDS011;39910;47.154;27.614;2023-02-01T01:30:03;8.70;;;8.30;;
34737;SDS011;39910;47.154;27.614;2023-02-01T01:32:28;8.40;;;8.00;;
34737;SDS011;39910;47.154;27.614;2023-02-01T01:34:54;7.95;;;7.63;;
34737;SDS011;39910;47.154;27.614;2023-02-01T01:37:19;8.30;;;7.90;;
34737;SDS011;39910;47.154;27.614;2023-02-01T01:39:44;8.68;;;8.27;;
34737;SDS011;39910;47.154;27.614;2023-02-01T01:42:11;8.10;;;7.70;;
34737;SDS011;39910;47.154;27.614;2023-02-01T01:47:21;8.18;;;7.78;;
34737;SDS011;39910;47.154;27.614;2023-02-01T01:49:46;8.35;;;7.95;;
34737;SDS011;39910;47.154;27.614;2023-02-01T01:52:12;9.02;;;8.57;;
34737;SDS011;39910;47.154;27.614;2023-02-01T01:54:39;8.38;;;7.97;;
34737;SDS011;39910;47.154;27.614;2023-02-01T01:57:09;7.97;;;7.65;;
34737;SDS011;39910;47.154;27.614;2023-02-01T01:59:36;9.23;;;8.73;;
34737;SDS011;39910;47.154;27.614;2023-02-01T02:02:02;8.38;;;7.97;;
34737;SDS011;39910;47.154;27.614;2023-02-01T02:04:27;8.27;;;7.88;;
34737;SDS011;39910;47.154;27.614;2023-02-01T02:06:58;8.27;;;7.88;;
34737;SDS011;39910;47.154;27.614;2023-02-01T02:09:24;8.00;;;7.70;;
34737;SDS011;39910;47.154;27.614;2023-02-01T02:11:50;8.50;;;8.10;;
34737;SDS011;39910;47.154;27.614;2023-02-01T02:14:16;8.27;;;7.88;;
34737;SDS011;39910;47.154;27.614;2023-02-01T02:16:48;8.68;;;8.27;;
34737;SDS011;39910;47.154;27.614;2023-02-01T02:24:13;8.63;;;8.23;;
34737;SDS011;39910;47.154;27.614;2023-02-01T02:29:26;7.93;;;7.63;;
34737;SDS011;39910;47.154;27.614;2023-02-01T02:34:39;9.30;;;8.80;;
34737;SDS011;39910;47.154;27.614;2023-02-01T02:47:33;8.40;;;8.00;;
34737;SDS011;39910;47.154;27.614;2023-02-01T02:50:44;8.32;;;7.93;;
34737;SDS011;39910;47.154;27.614;2023-02-01T02:53:19;8.73;;;8.32;;
34737;SDS011;39910;47.154;27.614;2023-02-01T02:56:05;8.10;;;7.70;;
34737;SDS011;39910;47.154;27.614;2023-02-01T02:58:49;8.27;;;7.88;;
34737;SDS011;39910;47.154;27.614;2023-02-01T03:01:33;8.32;;;7.93;;
34737;SDS011;39910;47.154;27.614;2023-02-01T03:04:17;8.35;;;7.95;;
34737;SDS011;39910;47.154;27.614;2023-02-01T03:06:43;8.98;;;8.50;;
34737;SDS011;39910;47.154;27.614;2023-02-01T03:09:12;8.95;;;8.55;;
34737;SDS011;39910;47.154;27.614;2023-02-01T03:11:39;8.30;;;7.90;;
34737;SDS011;39910;47.154;27.614;2023-02-01T03:14:24;8.40;;;8.00;;
34737;SDS011;39910;47.154;27.614;2023-02-01T03:16:51;8.55;;;8.15;;
34737;SDS011;39910;47.154;27.614;2023-02-01T03:19:19;8.85;;;8.45;;
34737;SDS011;39910;47.154;27.614;2023-02-01T03:24:42;9.20;;;8.70;;
34737;SDS011;39910;47.154;27.614;2023-02-01T03:27:16;8.60;;;8.20;;
34737;SDS011;39910;47.154;27.614;2023-02-01T03:30:04;8.60;;;8.20;;
34737;SDS011;39910;47.154;27.614;2023-02-01T03:32:27;9.23;;;8.73;;
34737;SDS011;39910;47.154;27.614;2023-02-01T03:34:53;8.30;;;7.90;;
34737;SDS011;39910;47.154;27.614;2023-02-01T03:37:22;8.30;;;7.90;;
34737;SDS011;39910;47.154;27.614;2023-02-01T03:40:00;8.85;;;8.45;;
34737;SDS011;39910;47.154;27.614;2023-02-01T03:42:27;8.90;;;8.50;;
34737;SDS011;39910;47.154;27.614;2023-02-01T03:44:57;8.57;;;8.18;;
34737;SDS011;39910;47.154;27.614;2023-02-01T03:47:26;8.90;;;8.50;;
34737;SDS011;39910;47.154;27.614;2023-02-01T03:49:53;8.73;;;8.32;;
34737;SDS011;39910;47.154;27.614;2023-02-01T03:52:22;8.95;;;8.50;;
34737;SDS011;39910;47.154;27.614;2023-02-01T03:54:50;8.77;;;8.38;;
34737;SDS011;39910;47.154;27.614;2023-02-01T03:57:16;8.70;;;8.30;;
34737;SDS011;39910;47.154;27.614;2023-02-01T03:59:45;8.55;;;8.15;;
34737;SDS011;39910;47.154;27.614;2023-02-01T04:02:11;8.43;;;8.02;;
34737;SDS011;39910;47.154;27.614;2023-02-01T04:04:36;8.90;;;8.50;;
34737;SDS011;39910;47.154;27.614;2023-02-01T04:07:02;8.60;;;8.20;;
34737;SDS011;39910;47.154;27.614;2023-02-01T04:09:28;8.45;;;8.05;;
34737;SDS011;39910;47.154;27.614;2023-02-01T04:11:53;8.20;;;7.80;;
34737;SDS011;39910;47.154;27.614;2023-02-01T04:14:18;7.90;;;7.60;;
34737;SDS011;39910;47.154;27.614;2023-02-01T04:16:44;8.60;;;8.20;;
34737;SDS011;39910;47.154;27.614;2023-02-01T04:19:09;8.10;;;7.70;;
34737;SDS011;39910;47.154;27.614;2023-02-01T04:21:35;8.27;;;7.88;;
34737;SDS011;39910;47.154;27.614;2023-02-01T04:24:00;8.60;;;8.20;;
34737;SDS011;39910;47.154;27.614;2023-02-01T04:26:25;8.20;;;7.80;;
34737;SDS011;39910;47.154;27.614;2023-02-01T04:28:50;8.65;;;8.25;;
34737;SDS011;39910;47.154;27.614;2023-02-01T04:31:17;8.60;;;8.20;;
34737;SDS011;39910;47.154;27.614;2023-02-01T04:33:50;8.50;;;8.10;;
34737;SDS011;39910;47.154;27.614;2023-02-01T04:36:15;8.48;;;8.07;;
34737;SDS011;39910;47.154;27.614;2023-02-01T04:38:44;8.63;;;8.23;;
34737;SDS011;39910;47.154;27.614;2023-02-01T04:41:10;8.40;;;8.00;;
34737;SDS011;39910;47.154;27.614;2023-02-01T04:43:35;9.20;;;8.70;;
34737;SDS011;39910;47.154;27.614;2023-02-01T04:46:00;8.95;;;8.55;;
34737;SDS011;39910;47.154;27.614;2023-02-01T04:48:25;8.73;;;8.32;;
34737;SDS011;39910;47.154;27.614;2023-02-01T04:50:51;9.45;;;8.95;;
34737;SDS011;39910;47.154;27.614;2023-02-01T04:53:17;8.95;;;8.55;;
34737;SDS011;39910;47.154;27.614;2023-02-01T04:55:42;8.68;;;8.27;;
34737;SDS011;39910;47.154;27.614;2023-02-01T04:58:08;8.50;;;8.10;;
34737;SDS011;39910;47.154;27.614;2023-02-01T05:00:33;9.32;;;8.82;;
34737;SDS011;39910;47.154;27.614;2023-02-01T05:02:59;9.00;;;8.50;;
34737;SDS011;39910;47.154;27.614;2023-02-01T05:05:24;9.18;;;8.68;;
34737;SDS011;39910;47.154;27.614;2023-02-01T05:07:50;8.52;;;8.13;;
34737;SDS011;39910;47.154;27.614;2023-02-01T05:10:16;8.63;;;8.23;;
34737;SDS011;39910;47.154;27.614;2023-02-01T05:12:42;9.45;;;8.95;;
34737;SDS011;39910;47.154;27.614;2023-02-01T05:15:26;8.43;;;8.02;;
34737;SDS011;39910;47.154;27.614;2023-02-01T05:17:51;8.80;;;8.40;;
34737;SDS011;39910;47.154;27.614;2023-02-01T05:20:17;8.50;;;8.10;;
34737;SDS011;39910;47.154;27.614;2023-02-01T05:22:42;8.75;;;8.35;;
34737;SDS011;39910;47.154;27.614;2023-02-01T05:25:07;8.30;;;7.90;;
34737;SDS011;39910;47.154;27.614;2023-02-01T05:27:33;8.70;;;8.30;;
34737;SDS011;39910;47.154;27.614;2023-02-01T05:29:58;9.07;;;8.68;;
34737;SDS011;39910;47.154;27.614;2023-02-01T05:32:24;8.40;;;8.00;;
34737;SDS011;39910;47.154;27.614;2023-02-01T05:34:49;9.07;;;8.57;;
34737;SDS011;39910;47.154;27.614;2023-02-01T05:37:15;9.05;;;8.55;;
34737;SDS011;39910;47.154;27.614;2023-02-01T05:39:40;9.50;;;9.00;;
34737;SDS011;39910;47.154;27.614;2023-02-01T05:42:05;9.48;;;8.98;;
34737;SDS011;39910;47.154;27.614;2023-02-01T05:44:30;8.48;;;8.07;;
34737;SDS011;39910;47.154;27.614;2023-02-01T05:46:56;8.77;;;8.38;;
34737;SDS011;39910;47.154;27.614;2023-02-01T05:49:21;8.48;;;8.07;;
34737;SDS011;39910;47.154;27.614;2023-02-01T05:51:46;9.32;;;8.82;;
34737;SDS011;39910;47.154;27.614;2023-02-01T05:54:12;8.20;;;7.80;;
34737;SDS011;39910;47.154;27.614;2023-02-01T05:56:37;8.85;;;8.45;;
34737;SDS011;39910;47.154;27.614;2023-02-01T05:59:02;8.93;;;8.50;;
34737;SDS011;39910;47.154;27.614;2023-02-01T06:01:28;8.65;;;8.25;;
34737;SDS011;39910;47.154;27.614;2023-02-01T06:03:53;8.45;;;8.05;;
34737;SDS011;39910;47.154;27.614;2023-02-01T06:06:18;8.80;;;8.40;;
34737;SDS011;39910;47.154;27.614;2023-02-01T06:08:44;8.38;;;7.97;;
34737;SDS011;39910;47.154;27.614;2023-02-01T06:11:10;8.73;;;8.32;;
34737;SDS011;39910;47.154;27.614;2023-02-01T06:13:35;8.73;;;8.32;;
34737;SDS011;39910;47.154;27.614;2023-02-01T06:16:03;8.85;;;8.45;;
34737;SDS011;39910;47.154;27.614;2023-02-01T06:18:30;8.85;;;8.45;;
34737;SDS011;39910;47.154;27.614;2023-02-01T06:20:57;8.25;;;7.85;;
34737;SDS011;39910;47.154;27.614;2023-02-01T06:23:25;9.52;;;9.02;;
34737;SDS011;39910;47.154;27.614;2023-02-01T06:25:51;8.38;;;7.97;;
34737;SDS011;39910;47.154;27.614;2023-02-01T06:28:16;8.85;;;8.45;;
34737;SDS011;39910;47.154;27.614;2023-02-01T06:30:41;9.23;;;8.73;;
34737;SDS011;39910;47.154;27.614;2023-02-01T06:33:11;8.80;;;8.40;;
34737;SDS011;39910;47.154;27.614;2023-02-01T06:35:36;9.07;;;8.57;;
34737;SDS011;39910;47.154;27.614;2023-02-01T06:38:02;8.88;;;8.48;;
34737;SDS011;39910;47.154;27.614;2023-02-01T06:40:27;9.05;;;8.57;;
34737;SDS011;39910;47.154;27.614;2023-02-01T06:42:53;8.23;;;7.82;;
34737;SDS011;39910;47.154;27.614;2023-02-01T06:45:18;10.10;;;9.50;;
34737;SDS011;39910;47.154;27.614;2023-02-01T06:47:43;8.63;;;8.23;;
34737;SDS011;39910;47.154;27.614;2023-02-01T06:50:09;8.40;;;8.00;;
34737;SDS011;39910;47.154;27.614;2023-02-01T06:52:35;8.32;;;7.93;;
34737;SDS011;39910;47.154;27.614;2023-02-01T06:55:00;8.98;;;8.52;;
34737;SDS011;39910;47.154;27.614;2023-02-01T06:57:25;8.68;;;8.27;;
34737;SDS011;39910;47.154;27.614;2023-02-01T06:59:55;8.75;;;8.35;;
34737;SDS011;39910;47.154;27.614;2023-02-01T07:02:20;8.35;;;7.95;;
34737;SDS011;39910;47.154;27.614;2023-02-01T07:04:46;11.02;;;10.40;;
34737;SDS011;39910;47.154;27.614;2023-02-01T07:07:12;8.73;;;8.32;;
34737;SDS011;39910;47.154;27.614;2023-02-01T07:09:37;8.27;;;7.88;;
34737;SDS011;39910;47.154;27.614;2023-02-01T07:12:03;8.80;;;8.40;;
34737;SDS011;39910;47.154;27.614;2023-02-01T07:14:28;8.45;;;8.05;;
34737;SDS011;39910;47.154;27.614;2023-02-01T07:16:54;8.93;;;8.52;;
34737;SDS011;39910;47.154;27.614;2023-02-01T07:19:19;8.38;;;7.97;;
34737;SDS011;39910;47.154;27.614;2023-02-01T07:21:44;8.82;;;8.43;;
34737;SDS011;39910;47.154;27.614;2023-02-01T07:24:09;8.60;;;8.20;;
34737;SDS011;39910;47.154;27.614;2023-02-01T07:26:35;8.77;;;8.38;;
34737;SDS011;39910;47.154;27.614;2023-02-01T07:29:00;9.02;;;8.63;;
34737;SDS011;39910;47.154;27.614;2023-02-01T07:31:25;9.50;;;9.10;;
34737;SDS011;39910;47.154;27.614;2023-02-01T07:33:51;9.32;;;8.93;;
34737;SDS011;39910;47.154;27.614;2023-02-01T07:36:16;9.50;;;9.10;;
34737;SDS011;39910;47.154;27.614;2023-02-01T07:38:42;9.63;;;9.23;;
34737;SDS011;39910;47.154;27.614;2023-02-01T07:41:08;9.48;;;9.07;;
34737;SDS011;39910;47.154;27.614;2023-02-01T07:43:34;10.02;;;9.55;;
34737;SDS011;39910;47.154;27.614;2023-02-01T07:45:59;10.55;;;10.05;;
34737;SDS011;39910;47.154;27.614;2023-02-01T07:48:25;10.05;;;9.55;;
34737;SDS011;39910;47.154;27.614;2023-02-01T07:51:00;10.10;;;9.60;;
34737;SDS011;39910;47.154;27.614;2023-02-01T07:53:26;9.68;;;9.27;;
34737;SDS011;39910;47.154;27.614;2023-02-01T07:55:53;10.93;;;10.32;;
34737;SDS011;39910;47.154;27.614;2023-02-01T07:58:18;9.50;;;9.10;;
34737;SDS011;39910;47.154;27.614;2023-02-01T08:00:43;10.23;;;9.73;;
34737;SDS011;39910;47.154;27.614;2023-02-01T08:03:27;9.27;;;8.88;;
34737;SDS011;39910;47.154;27.614;2023-02-01T08:05:55;9.45;;;9.02;;
34737;SDS011;39910;47.154;27.614;2023-02-01T08:08:21;9.40;;;9.00;;
34737;SDS011;39910;47.154;27.614;2023-02-01T08:10:46;9.60;;;9.13;;
34737;SDS011;39910;47.154;27.614;2023-02-01T08:13:12;9.45;;;9.00;;
34737;SDS011;39910;47.154;27.614;2023-02-01T08:15:37;8.88;;;8.48;;
34737;SDS011;39910;47.154;27.614;2023-02-01T08:18:02;9.38;;;8.95;;
34737;SDS011;39910;47.154;27.614;2023-02-01T08:20:28;9.70;;;9.20;;
34737;SDS011;39910;47.154;27.614;2023-02-01T08:22:54;8.95;;;8.55;;
34737;SDS011;39910;47.154;27.614;2023-02-01T08:25:19;8.90;;;8.50;;
34737;SDS011;39910;47.154;27.614;2023-02-01T08:27:45;9.10;;;8.70;;
34737;SDS011;39910;47.154;27.614;2023-02-01T08:30:11;8.88;;;8.48;;
34737;SDS011;39910;47.154;27.614;2023-02-01T08:32:36;9.55;;;9.07;;
34737;SDS011;39910;47.154;27.614;2023-02-01T08:35:02;9.70;;;9.20;;
34737;SDS011;39910;47.154;27.614;2023-02-01T08:37:28;8.60;;;8.20;;
34737;SDS011;39910;47.154;27.614;2023-02-01T08:39:54;9.88;;;9.38;;
34737;SDS011;39910;47.154;27.614;2023-02-01T08:42:19;9.38;;;8.90;;
34737;SDS011;39910;47.154;27.614;2023-02-01T08:45:04;9.00;;;8.60;;
34737;SDS011;39910;47.154;27.614;2023-02-01T08:47:30;9.15;;;8.75;;
34737;SDS011;39910;47.154;27.614;2023-02-01T08:49:55;8.45;;;8.05;;
34737;SDS011;39910;47.154;27.614;2023-02-01T08:52:20;9.32;;;8.90;;
34737;SDS011;39910;47.154;27.614;2023-02-01T08:54:46;9.00;;;8.60;;
34737;SDS011;39910;47.154;27.614;2023-02-01T08:57:11;10.07;;;9.57;;
34737;SDS011;39910;47.154;27.614;2023-02-01T08:59:37;9.15;;;8.75;;
34737;SDS011;39910;47.154;27.614;2023-02-01T09:02:02;9.57;;;9.07;;
34737;SDS011;39910;47.154;27.614;2023-02-01T09:04:27;8.95;;;8.55;;
34737;SDS011;39910;47.154;27.614;2023-02-01T09:06:53;8.93;;;8.52;;
34737;SDS011;39910;47.154;27.614;2023-02-01T09:09:20;9.00;;;8.60;;
34737;SDS011;39910;47.154;27.614;2023-02-01T09:11:46;8.77;;;8.38;;
34737;SDS011;39910;47.154;27.614;2023-02-01T09:14:11;8.82;;;8.43;;
34737;SDS011;39910;47.154;27.614;2023-02-01T09:16:36;8.95;;;8.55;;
34737;SDS011;39910;47.154;27.614;2023-02-01T09:19:01;8.38;;;7.97;;
34737;SDS011;39910;47.154;27.614;2023-02-01T09:21:27;8.77;;;8.38;;
34737;SDS011;39910;47.154;27.614;2023-02-01T09:23:52;9.00;;;8.60;;
34737;SDS011;39910;47.154;27.614;2023-02-01T09:26:18;8.63;;;8.23;;
34737;SDS011;39910;47.154;27.614;2023-02-01T09:28:43;8.63;;;8.23;;
34737;SDS011;39910;47.154;27.614;2023-02-01T09:31:08;8.82;;;8.43;;
34737;SDS011;39910;47.154;27.614;2023-02-01T09:33:34;8.32;;;7.93;;
34737;SDS011;39910;47.154;27.614;2023-02-01T09:36:00;8.95;;;8.55;;
34737;SDS011;39910;47.154;27.614;2023-02-01T09:38:26;9.13;;;8.73;;
34737;SDS011;39910;47.154;27.614;2023-02-01T09:40:52;8.90;;;8.50;;
34737;SDS011;39910;47.154;27.614;2023-02-01T09:48:34;9.05;;;8.65;;
34737;SDS011;39910;47.154;27.614;2023-02-01T09:51:02;9.52;;;9.05;;
34737;SDS011;39910;47.154;27.614;2023-02-01T09:53:35;9.20;;;8.80;;
34737;SDS011;39910;47.154;27.614;2023-02-01T09:56:06;9.20;;;8.80;;
34737;SDS011;39910;47.154;27.614;2023-02-01T09:58:52;9.73;;;9.25;;
34737;SDS011;39910;47.154;27.614;2023-02-01T10:01:21;9.73;;;9.23;;
34737;SDS011;39910;47.154;27.614;2023-02-01T10:03:47;9.73;;;9.23;;
34737;SDS011;39910;47.154;27.614;2023-02-01T10:19:10;9.32;;;8.93;;
34737;SDS011;39910;47.154;27.614;2023-02-01T10:27:17;9.00;;;8.60;;
34737;SDS011;39910;47.154;27.614;2023-02-01T10:29:43;9.73;;;9.23;;
34737;SDS011;39910;47.154;27.614;2023-02-01T10:32:12;9.18;;;8.77;;
34737;SDS011;39910;47.154;27.614;2023-02-01T10:34:38;9.77;;;9.30;;
34737;SDS011;39910;47.154;27.614;2023-02-01T10:37:18;10.65;;;10.05;;
34737;SDS011;39910;47.154;27.614;2023-02-01T10:39:47;10.00;;;9.50;;
34737;SDS011;39910;47.154;27.614;2023-02-01T10:42:13;10.07;;;9.57;;
34737;SDS011;39910;47.154;27.614;2023-02-01T10:44:40;9.63;;;9.13;;
34737;SDS011;39910;47.154;27.614;2023-02-01T10:47:08;9.73;;;9.23;;
34737;SDS011;39910;47.154;27.614;2023-02-01T10:50:17;9.90;;;9.40;;
34737;SDS011;39910;47.154;27.614;2023-02-01T10:54:48;10.18;;;9.68;;
34737;SDS011;39910;47.154;27.614;2023-02-01T10:57:21;9.77;;;9.27;;
34737;SDS011;39910;47.154;27.614;2023-02-01T10:59:46;9.57;;;9.07;;
34737;SDS011;39910;47.154;27.614;2023-02-01T11:02:20;9.77;;;9.27;;
34737;SDS011;39910;47.154;27.614;2023-02-01T11:04:46;10.20;;;9.70;;
34737;SDS011;39910;47.154;27.614;2023-02-01T11:09:40;10.32;;;9.82;;
34737;SDS011;39910;47.154;27.614;2023-02-01T11:12:07;10.77;;;10.18;;
34737;SDS011;39910;47.154;27.614;2023-02-01T11:14:45;10.55;;;9.98;;
34737;SDS011;39910;47.154;27.614;2023-02-01T11:17:17;9.98;;;9.48;;
34737;SDS011;39910;47.154;27.614;2023-02-01T11:19:44;10.65;;;10.05;;
34737;SDS011;39910;47.154;27.614;2023-02-01T11:22:10;10.38;;;9.88;;
34737;SDS011;39910;47.154;27.614;2023-02-01T11:24:36;9.95;;;9.45;;
34737;SDS011;39910;47.154;27.614;2023-02-01T11:27:03;10.07;;;9.57;;
34737;SDS011;39910;47.154;27.614;2023-02-01T11:29:39;9.98;;;9.48;;
34737;SDS011;39910;47.154;27.614;2023-02-01T11:32:05;8.93;;;8.52;;
34737;SDS011;39910;47.154;27.614;2023-02-01T11:34:37;9.18;;;8.77;;
34737;SDS011;39910;47.154;27.614;2023-02-01T11:37:03;9.80;;;9.30;;
34737;SDS011;39910;47.154;27.614;2023-02-01T11:39:30;9.27;;;8.88;;
34737;SDS011;39910;47.154;27.614;2023-02-01T11:42:11;9.20;;;8.80;;
34737;SDS011;39910;47.154;27.614;2023-02-01T11:44:38;9.45;;;9.02;;
34737;SDS011;39910;47.154;27.614;2023-02-01T11:49:48;9.25;;;8.85;;
34737;SDS011;39910;47.154;27.614;2023-02-01T11:52:20;9.32;;;8.93;;
34737;SDS011;39910;47.154;27.614;2023-02-01T11:54:58;9.30;;;8.90;;
34737;SDS011;39910;47.154;27.614;2023-02-01T12:18:05;9.43;;;9.02;;
34737;SDS011;39910;47.154;27.614;2023-02-01T12:30:45;8.85;;;8.45;;
34737;SDS011;39910;47.154;27.614;2023-02-01T12:33:32;9.18;;;8.77;;
34737;SDS011;39910;47.154;27.614;2023-02-01T12:44:17;8.88;;;8.48;;
34737;SDS011;39910;47.154;27.614;2023-02-01T12:46:38;9.40;;;8.93;;
34737;SDS011;39910;47.154;27.614;2023-02-01T12:49:05;9.20;;;8.80;;
34737;SDS011;39910;47.154;27.614;2023-02-01T12:51:36;9.25;;;8.85;;
34737;SDS011;39910;47.154;27.614;2023-02-01T12:57:01;9.18;;;8.77;;
34737;SDS011;39910;47.154;27.614;2023-02-01T13:01:56;9.27;;;8.88;;
34737;SDS011;39910;47.154;27.614;2023-02-01T13:04:38;9.40;;;8.95;;
34737;SDS011;39910;47.154;27.614;2023-02-01T13:07:09;9.18;;;8.77;;
34737;SDS011;39910;47.154;27.614;2023-02-01T13:09:43;9.18;;;8.77;;
34737;SDS011;39910;47.154;27.614;2023-02-01T13:12:15;9.15;;;8.75;;
34737;SDS011;39910;47.154;27.614;2023-02-01T13:14:46;9.50;;;9.00;;
34737;SDS011;39910;47.154;27.614;2023-02-01T13:19:45;9.00;;;8.60;;
34737;SDS011;39910;47.154;27.614;2023-02-01T13:22:17;9.15;;;8.75;;
34737;SDS011;39910;47.154;27.614;2023-02-01T13:24:50;9.18;;;8.77;;
34737;SDS011;39910;47.154;27.614;2023-02-01T13:27:17;8.70;;;8.30;;
34737;SDS011;39910;47.154;27.614;2023-02-01T13:29:55;9.68;;;9.18;;
34737;SDS011;39910;47.154;27.614;2023-02-01T13:34:51;9.23;;;8.82;;
34737;SDS011;39910;47.154;27.614;2023-02-01T13:44:48;9.35;;;8.93;;
34737;SDS011;39910;47.154;27.614;2023-02-01T13:47:21;9.07;;;8.68;;
34737;SDS011;39910;47.154;27.614;2023-02-01T13:49:47;9.65;;;9.15;;
34737;SDS011;39910;47.154;27.614;2023-02-01T13:55:15;10.43;;;9.88;;
34737;SDS011;39910;47.154;27.614;2023-02-01T13:57:39;10.05;;;9.55;;
34737;SDS011;39910;47.154;27.614;2023-02-01T14:00:07;8.73;;;8.32;;
34737;SDS011;39910;47.154;27.614;2023-02-01T14:07:49;9.73;;;9.23;;
34737;SDS011;39910;47.154;27.614;2023-02-01T14:13:13;9.82;;;9.32;;
34737;SDS011;39910;47.154;27.614;2023-02-01T14:23:38;10.27;;;9.77;;
34737;SDS011;39910;47.154;27.614;2023-02-01T14:26:06;9.63;;;9.13;;
34737;SDS011;39910;47.154;27.614;2023-02-01T14:28:32;9.70;;;9.20;;
34737;SDS011;39910;47.154;27.614;2023-02-01T14:31:00;9.70;;;9.20;;
34737;SDS011;39910;47.154;27.614;2023-02-01T14:33:26;9.15;;;8.75;;
34737;SDS011;39910;47.154;27.614;2023-02-01T14:36:01;10.60;;;10.00;;
34737;SDS011;39910;47.154;27.614;2023-02-01T14:38:28;9.40;;;8.95;;
34737;SDS011;39910;47.154;27.614;2023-02-01T14:41:09;9.48;;;8.98;;
34737;SDS011;39910;47.154;27.614;2023-02-01T14:43:50;8.88;;;8.48;;
34737;SDS011;39910;47.154;27.614;2023-02-01T14:46:16;9.35;;;8.88;;
34737;SDS011;39910;47.154;27.614;2023-02-01T14:48:42;9.88;;;9.38;;
34737;SDS011;39910;47.154;27.614;2023-02-01T14:51:09;10.48;;;9.88;;
34737;SDS011;39910;47.154;27.614;2023-02-01T14:53:36;10.02;;;9.52;;
34737;SDS011;39910;47.154;27.614;2023-02-01T15:01:22;10.45;;;9.85;;
34737;SDS011;39910;47.154;27.614;2023-02-01T15:03:53;9.55;;;9.05;;
34737;SDS011;39910;47.154;27.614;2023-02-01T15:06:30;9.50;;;9.00;;
34737;SDS011;39910;47.154;27.614;2023-02-01T15:09:02;9.00;;;8.60;;
34737;SDS011;39910;47.154;27.614;2023-02-01T15:11:29;9.98;;;9.48;;
34737;SDS011;39910;47.154;27.614;2023-02-01T15:13:54;9.52;;;9.02;;
34737;SDS011;39910;47.154;27.614;2023-02-01T15:16:22;9.63;;;9.13;;
34737;SDS011;39910;47.154;27.614;2023-02-01T15:18:48;9.73;;;9.23;;
34737;SDS011;39910;47.154;27.614;2023-02-01T15:21:21;10.00;;;9.50;;
34737;SDS011;39910;47.154;27.614;2023-02-01T15:23:47;8.70;;;8.30;;
34737;SDS011;39910;47.154;27.614;2023-02-01T15:26:26;9.57;;;9.07;;
34737;SDS011;39910;47.154;27.614;2023-02-01T15:28:52;9.90;;;9.40;;
34737;SDS011;39910;47.154;27.614;2023-02-01T15:31:30;9.55;;;9.05;;
34737;SDS011;39910;47.154;27.614;2023-02-01T15:33:56;9.00;;;8.60;;
34737;SDS011;39910;47.154;27.614;2023-02-01T15:36:21;10.00;;;9.50;;
34737;SDS011;39910;47.154;27.614;2023-02-01T15:39:10;9.65;;;9.15;;
34737;SDS011;39910;47.154;27.614;2023-02-01T15:41:36;9.35;;;8.85;;
34737;SDS011;39910;47.154;27.614;2023-02-01T15:46:31;8.77;;;8.38;;
34737;SDS011;39910;47.154;27.614;2023-02-01T15:48:57;8.90;;;8.50;;
34737;SDS011;39910;47.154;27.614;2023-02-01T15:51:31;8.70;;;8.30;;
34737;SDS011;39910;47.154;27.614;2023-02-01T15:56:35;8.63;;;8.23;;
34737;SDS011;39910;47.154;27.614;2023-02-01T15:59:02;9.38;;;8.88;;
34737;SDS011;39910;47.154;27.614;2023-02-01T16:01:28;8.90;;;8.50;;
34737;SDS011;39910;47.154;27.614;2023-02-01T16:06:44;9.05;;;8.63;;
34737;SDS011;39910;47.154;27.614;2023-02-01T16:09:13;9.75;;;9.25;;
34737;SDS011;39910;47.154;27.614;2023-02-01T16:11:46;10.07;;;9.57;;
34737;SDS011;39910;47.154;27.614;2023-02-01T16:14:12;9.80;;;9.30;;
34737;SDS011;39910;47.154;27.614;2023-02-01T16:16:38;9.60;;;9.10;;
34737;SDS011;39910;47.154;27.614;2023-02-01T16:19:03;10.55;;;9.95;;
34737;SDS011;39910;47.154;27.614;2023-02-01T16:21:30;10.63;;;10.02;;
34737;SDS011;39910;47.154;27.614;2023-02-01T16:23:56;10.65;;;10.05;;
34737;SDS011;39910;47.154;27.614;2023-02-01T16:26:21;10.00;;;9.50;;
34737;SDS011;39910;47.154;27.614;2023-02-01T16:28:47;10.80;;;10.20;;
34737;SDS011;39910;47.154;27.614;2023-02-01T16:31:13;10.82;;;10.23;;
34737;SDS011;39910;47.154;27.614;2023-02-01T16:33:50;10.95;;;10.35;;
34737;SDS011;39910;47.154;27.614;2023-02-01T16:36:16;10.40;;;9.80;;
34737;SDS011;39910;47.154;27.614;2023-02-01T16:38:41;10.57;;;9.98;;
34737;SDS011;39910;47.154;27.614;2023-02-01T16:41:09;9.73;;;9.23;;
34737;SDS011;39910;47.154;27.614;2023-02-01T16:43:35;9.43;;;8.95;;
34737;SDS011;39910;47.154;27.614;2023-02-01T16:46:00;9.73;;;9.23;;
34737;SDS011;39910;47.154;27.614;2023-02-01T16:48:33;9.48;;;8.98;;
34737;SDS011;39910;47.154;27.614;2023-02-01T16:51:00;9.52;;;9.02;;
34737;SDS011;39910;47.154;27.614;2023-02-01T16:53:26;9.77;;;9.27;;
34737;SDS011;39910;47.154;27.614;2023-02-01T16:55:52;10.43;;;9.82;;
34737;SDS011;39910;47.154;27.614;2023-02-01T16:58:18;9.85;;;9.35;;
34737;SDS011;39910;47.154;27.614;2023-02-01T17:00:44;9.50;;;9.00;;
34737;SDS011;39910;47.154;27.614;2023-02-01T17:03:10;10.73;;;10.13;;
34737;SDS011;39910;47.154;27.614;2023-02-01T17:05:41;10.45;;;9.85;;